Time;durP1;ratioP1;P1;durP2;ratioP2;P2;SDS_P1;SDS_P2;PMS_P1;PMS_P2;Temp;Humidity;BMP_temperature;BMP_pressure;BME280_temperature;BME280_humidity;BME280_pressure;Samples;Min_cycle;Max_cycle;Signal;HPM_P1;HPM_P2
2023/03/03 00:01:28;;;;;;;18.90;9.23;;;2.80;97.70;;;;;;5091312;28;20074;-61
2023/03/03 00:03:54;;;;;;;16.67;8.43;;;2.90;97.30;;;;;;5085464;28;20028;-62
2023/03/03 00:06:21;;;;;;;13.70;7.28;;;2.80;97.80;;;;;;5085623;28;20035;-61
2023/03/03 00:08:46;;;;;;;16.15;7.72;;;2.80;97.80;;;;;;5080450;28;20037;-62
2023/03/03 00:11:13;;;;;;;16.63;7.63;;;2.80;97.80;;;;;;5083848;28;20584;-62
2023/03/03 00:13:49;;;;;;;17.50;9.02;;;2.80;97.90;;;;;;5088848;28;20096;-62
2023/03/03 00:16:27;;;;;;;18.13;8.50;;;2.80;97.70;;;;;;5079684;28;20028;-62
2023/03/03 00:18:54;;;;;;;16.73;8.38;;;2.90;97.60;;;;;;5074468;28;20781;-62
2023/03/03 00:21:28;;;;;;;19.88;8.82;;;2.80;97.40;;;;;;5071450;28;20032;-61
2023/03/03 00:24:15;;;;;;;16.48;8.20;;;2.70;98.10;;;;;;5072170;28;20146;-64
2023/03/03 00:26:44;;;;;;;17.50;8.40;;;2.70;97.90;;;;;;5070261;28;20472;-62
2023/03/03 00:29:29;;;;;;;16.88;8.57;;;2.80;97.50;;;;;;5072414;28;20119;-62
2023/03/03 00:32:13;;;;;;;15.10;7.78;;;2.70;97.50;;;;;;5077434;28;20048;-62
2023/03/03 00:34:42;;;;;;;14.27;6.53;;;2.70;97.50;;;;;;5077250;28;20028;-62
2023/03/03 00:37:39;;;;;;;17.27;7.68;;;2.70;97.40;;;;;;5071893;28;20067;-62
2023/03/03 00:40:24;;;;;;;15.18;7.35;;;2.70;97.30;;;;;;5072317;28;20045;-63
2023/03/03 00:42:56;;;;;;;15.68;6.85;;;2.70;97.20;;;;;;5080773;28;20040;-62
2023/03/03 00:45:30;;;;;;;15.75;8.02;;;2.60;96.70;;;;;;5075723;28;20035;-62
2023/03/03 00:47:56;;;;;;;13.15;6.90;;;2.60;96.90;;;;;;5074860;28;20028;-61
2023/03/03 00:50:28;;;;;;;17.73;8.25;;;2.60;97.00;;;;;;5080106;28;20012;-62
2023/03/03 00:53:03;;;;;;;15.90;7.25;;;2.60;97.40;;;;;;5074213;28;20318;-63
2023/03/03 00:55:30;;;;;;;17.70;7.47;;;2.60;97.00;;;;;;5070468;28;20596;-61
2023/03/03 00:57:55;;;;;;;17.67;7.78;;;2.60;97.30;;;;;;5078415;28;20040;-61
2023/03/03 01:00:27;;;;;;;17.38;8.68;;;2.60;97.30;;;;;;5083651;28;20034;-61
2023/03/03 01:02:52;;;;;;;15.38;6.35;;;2.60;96.90;;;;;;5081822;28;20032;-61
2023/03/03 01:05:19;;;;;;;12.20;7.07;;;2.60;97.00;;;;;;5079737;28;20483;-61
2023/03/03 01:07:45;;;;;;;12.95;6.53;;;2.60;97.00;;;;;;5073932;28;20028;-62
2023/03/03 01:10:11;;;;;;;15.00;6.88;;;2.60;97.20;;;;;;5079504;28;20039;-61
2023/03/03 01:12:38;;;;;;;13.15;6.55;;;2.60;97.00;;;;;;5079450;28;20027;-61
2023/03/03 01:15:14;;;;;;;15.82;6.65;;;2.60;96.90;;;;;;5073280;28;20628;-61
2023/03/03 01:17:40;;;;;;;16.73;8.07;;;2.60;96.90;;;;;;5079276;28;20028;-61
2023/03/03 01:20:09;;;;;;;17.05;6.97;;;2.60;96.80;;;;;;5077315;28;20048;-61
2023/03/03 01:22:35;;;;;;;12.80;6.18;;;2.70;96.80;;;;;;5074398;28;20187;-61
2023/03/03 01:25:02;;;;;;;13.85;7.05;;;2.60;96.50;;;;;;5083991;28;20090;-61
2023/03/03 01:27:29;;;;;;;12.02;5.88;;;2.70;96.60;;;;;;5074758;28;20032;-62
2023/03/03 01:29:55;;;;;;;14.90;7.38;;;2.60;96.60;;;;;;5076168;28;20047;-62
2023/03/03 01:32:24;;;;;;;13.23;6.82;;;2.70;96.40;;;;;;5073186;28;20034;-63
2023/03/03 01:34:50;;;;;;;11.25;6.30;;;2.60;96.30;;;;;;5076638;28;20027;-62
2023/03/03 01:37:16;;;;;;;14.48;7.05;;;2.70;96.50;;;;;;5077068;28;20633;-62
2023/03/03 01:39:42;;;;;;;15.25;6.88;;;2.70;96.60;;;;;;5070726;28;20020;-62
2023/03/03 01:42:08;;;;;;;13.00;6.07;;;2.70;96.70;;;;;;5067746;28;20041;-62
2023/03/03 01:44:33;;;;;;;19.38;9.25;;;2.70;97.00;;;;;;5076665;28;20874;-62
2023/03/03 01:47:25;;;;;;;15.52;7.53;;;2.70;96.90;;;;;;5070488;28;20791;-62
2023/03/03 01:49:57;;;;;;;16.42;8.13;;;2.70;96.80;;;;;;5071072;28;20036;-63
2023/03/03 01:52:33;;;;;;;15.02;7.03;;;2.70;96.80;;;;;;5081562;28;20100;-62
2023/03/03 01:55:08;;;;;;;12.93;6.78;;;2.70;96.60;;;;;;5071817;28;20035;-62
2023/03/03 01:57:43;;;;;;;16.20;7.55;;;2.80;96.60;;;;;;5074515;28;20028;-64
2023/03/03 02:00:13;;;;;;;15.60;7.82;;;2.70;96.00;;;;;;5084369;28;20070;-64
2023/03/03 02:03:13;;;;;;;15.55;7.25;;;2.70;96.30;;;;;;5084448;28;20039;-64
2023/03/03 02:06:08;;;;;;;14.70;6.65;;;2.60;96.50;;;;;;5079792;28;20044;-63
2023/03/03 02:08:57;;;;;;;12.95;6.43;;;2.60;96.40;;;;;;5083446;28;20035;-62
2023/03/03 02:11:31;;;;;;;11.45;6.38;;;2.60;96.80;;;;;;5079622;28;20023;-63
2023/03/03 02:14:00;;;;;;;14.82;6.93;;;2.50;96.80;;;;;;5078796;28;20422;-62
2023/03/03 02:16:38;;;;;;;12.85;5.88;;;2.60;96.80;;;;;;5075007;28;20135;-64
2023/03/03 02:19:12;;;;;;;12.60;6.72;;;2.50;96.80;;;;;;5063974;28;20032;-62
2023/03/03 02:21:48;;;;;;;14.43;7.68;;;2.60;96.90;;;;;;5066395;28;20631;-62
2023/03/03 02:24:58;;;;;;;12.00;6.40;;;2.60;97.00;;;;;;5075062;28;20032;-62
2023/03/03 02:27:26;;;;;;;;;;;2.60;96.90;;;;;;5023522;28;20069;-62
2023/03/03 02:30:07;;;;;;;13.65;6.88;;;2.60;96.80;;;;;;5073521;28;19911;-62
2023/03/03 02:32:41;;;;;;;14.65;7.53;;;2.60;96.70;;;;;;5062229;28;20031;-61
2023/03/03 02:35:31;;;;;;;15.70;7.88;;;2.70;96.70;;;;;;5063071;28;20033;-61
2023/03/03 02:38:09;;;;;;;14.52;7.25;;;2.70;96.60;;;;;;5066419;28;20024;-61
2023/03/03 02:41:00;;;;;;;13.40;7.07;;;2.70;96.60;;;;;;5073163;28;20050;-61
2023/03/03 02:43:38;;;;;;;17.25;8.18;;;2.70;96.60;;;;;;5083858;28;20054;-62
2023/03/03 02:46:11;;;;;;;15.85;7.93;;;2.70;96.70;;;;;;5085737;28;20056;-61
2023/03/03 02:49:10;;;;;;;13.98;7.55;;;2.70;96.50;;;;;;5080562;28;20177;-63
2023/03/03 02:51:36;;;;;;;15.25;7.85;;;2.70;96.70;;;;;;5074432;28;20051;-59
2023/03/03 02:54:14;;;;;;;16.27;7.55;;;2.60;96.70;;;;;;5070869;28;20032;-61
2023/03/03 02:56:45;;;;;;;17.33;8.23;;;2.70;96.80;;;;;;5059042;28;20040;-61
2023/03/03 02:59:18;;;;;;;18.83;8.50;;;2.70;96.40;;;;;;5083493;28;20261;-62
2023/03/03 03:02:03;;;;;;;15.75;7.13;;;2.60;96.60;;;;;;5078397;28;20115;-61
2023/03/03 03:04:30;;;;;;;21.00;9.30;;;2.60;96.70;;;;;;5086112;28;20135;-63
2023/03/03 03:06:59;;;;;;;19.85;9.98;;;2.70;96.60;;;;;;5079017;28;20735;-64
2023/03/03 03:09:31;;;;;;;19.02;8.73;;;2.60;96.40;;;;;;5082128;28;20028;-62
2023/03/03 03:12:23;;;;;;;17.02;8.50;;;2.70;96.60;;;;;;5073934;28;20063;-61
2023/03/03 03:15:39;;;;;;;23.85;9.43;;;2.60;96.80;;;;;;5072753;28;20032;-62
2023/03/03 03:18:31;;;;;;;18.70;9.05;;;2.60;97.00;;;;;;5071170;28;20070;-62
2023/03/03 03:21:10;;;;;;;19.02;9.15;;;2.60;96.80;;;;;;5083566;28;20387;-62
2023/03/03 03:23:42;;;;;;;16.48;8.48;;;2.60;96.90;;;;;;5074948;28;20861;-62
2023/03/03 03:26:12;;;;;;;19.55;9.48;;;2.60;97.10;;;;;;5080821;28;20020;-64
2023/03/03 03:28:42;;;;;;;19.60;8.90;;;2.70;97.10;;;;;;5073062;28;20140;-63
2023/03/03 03:31:09;;;;;;;20.27;9.13;;;2.70;96.80;;;;;;5080207;28;20032;-62
2023/03/03 03:33:36;;;;;;;20.75;9.35;;;2.70;96.90;;;;;;5079835;28;20035;-62
2023/03/03 03:36:10;;;;;;;18.25;9.60;;;2.70;97.10;;;;;;5066250;28;20029;-61
2023/03/03 03:38:43;;;;;;;20.10;9.40;;;2.70;97.10;;;;;;5070556;28;20181;-63
2023/03/03 03:41:14;;;;;;;18.92;8.43;;;2.70;97.10;;;;;;5080212;28;20836;-62
2023/03/03 03:43:43;;;;;;;21.38;8.98;;;2.70;96.80;;;;;;5076957;28;20033;-65
2023/03/03 03:46:11;;;;;;;23.45;9.60;;;2.70;96.90;;;;;;5086293;28;20028;-62
2023/03/03 03:49:06;;;;;;;20.25;9.73;;;2.80;96.90;;;;;;5078585;28;20110;-62
2023/03/03 03:51:53;;;;;;;17.85;8.70;;;2.80;97.00;;;;;;5020019;28;20884;-61
2023/03/03 03:54:26;;;;;;;22.13;9.52;;;2.80;96.90;;;;;;5069555;28;20043;-63
2023/03/03 03:57:21;;;;;;;17.02;8.68;;;2.80;96.90;;;;;;5102957;27;20036;-62
2023/03/03 03:59:52;;;;;;;17.17;8.18;;;2.80;96.90;;;;;;5084584;28;20065;-60
2023/03/03 04:02:39;;;;;;;22.20;8.95;;;2.80;97.00;;;;;;5053035;28;20085;-62
2023/03/03 04:05:09;;;;;;;21.63;10.25;;;2.80;97.00;;;;;;5089258;28;20026;-62
2023/03/03 04:07:39;;;;;;;19.13;9.10;;;2.80;96.90;;;;;;5087234;28;20020;-62
2023/03/03 04:10:17;;;;;;;19.27;9.15;;;2.80;96.90;;;;;;5088487;28;20032;-63
2023/03/03 04:13:30;;;;;;;24.50;9.82;;;2.80;97.00;;;;;;5083302;28;20027;-61
2023/03/03 04:15:50;;;;;;;21.25;9.50;;;2.80;97.00;;;;;;5077595;28;20217;-61
2023/03/03 04:18:48;;;;;;;22.40;10.07;;;2.80;97.20;;;;;;5057105;28;20041;-61
2023/03/03 04:21:17;;;;;;;16.30;8.98;;;2.80;96.90;;;;;;5086140;28;20754;-63
2023/03/03 04:24:14;;;;;;;19.92;9.07;;;2.80;96.50;;;;;;5075873;28;20032;-61
2023/03/03 04:26:43;;;;;;;17.15;8.90;;;2.70;96.90;;;;;;5083413;28;20035;-62
2023/03/03 04:29:22;;;;;;;15.60;7.90;;;2.70;97.10;;;;;;5069469;28;20043;-61
2023/03/03 04:31:55;;;;;;;17.80;7.70;;;2.70;97.30;;;;;;5086408;28;20021;-61
2023/03/03 04:34:25;;;;;;;15.85;7.28;;;2.70;97.30;;;;;;5084951;28;20028;-61
2023/03/03 04:37:16;;;;;;;15.07;7.65;;;2.70;97.30;;;;;;5084577;28;20047;-62
2023/03/03 04:40:10;;;;;;;22.95;8.73;;;2.70;97.20;;;;;;5077147;28;20036;-62
2023/03/03 04:42:42;;;;;;;20.60;9.50;;;2.70;97.20;;;;;;5082198;28;20740;-61
2023/03/03 04:45:10;;;;;;;21.58;9.95;;;2.70;97.10;;;;;;5080611;28;20057;-60
2023/03/03 04:47:40;;;;;;;20.75;9.75;;;2.70;96.80;;;;;;5088886;28;20125;-61
2023/03/03 04:53:16;;;;;;;20.30;10.25;;;2.70;96.80;;;;;;5081217;28;20456;-62
2023/03/03 04:55:53;;;;;;;19.40;8.35;;;2.70;96.80;;;;;;5082573;28;20039;-64
2023/03/03 04:58:30;;;;;;;25.42;10.57;;;2.60;97.20;;;;;;5081963;28;20028;-63
2023/03/03 05:00:57;;;;;;;22.05;9.95;;;2.60;97.40;;;;;;5082916;28;20372;-61
2023/03/03 05:03:30;;;;;;;23.52;10.63;;;2.60;97.40;;;;;;5080579;28;20061;-61
2023/03/03 05:06:09;;;;;;;29.85;10.77;;;2.60;97.50;;;;;;5084377;28;20016;-62
2023/03/03 05:08:42;;;;;;;25.40;10.25;;;2.60;97.50;;;;;;5073909;28;20027;-61
2023/03/03 05:11:12;;;;;;;23.00;10.57;;;2.60;97.40;;;;;;5083277;28;20070;-62
2023/03/03 05:13:42;;;;;;;22.17;9.57;;;2.60;97.50;;;;;;5078841;28;20040;-59
2023/03/03 05:16:09;;;;;;;29.08;13.77;;;2.60;97.60;;;;;;5079427;28;20039;-60
2023/03/03 05:18:42;;;;;;;27.33;11.48;;;2.60;97.60;;;;;;5073013;28;20020;-60
2023/03/03 05:21:11;;;;;;;27.40;11.40;;;2.60;97.50;;;;;;5081224;27;20032;-60
2023/03/03 05:23:41;;;;;;;27.33;11.48;;;2.60;97.70;;;;;;5084626;28;20040;-61
2023/03/03 05:26:12;;;;;;;31.33;12.45;;;2.70;97.60;;;;;;5080194;28;20703;-61
2023/03/03 05:28:41;;;;;;;31.52;12.40;;;2.70;97.70;;;;;;5084311;28;20024;-61
2023/03/03 05:31:11;;;;;;;28.52;12.20;;;2.70;97.50;;;;;;5075205;28;20035;-61
2023/03/03 05:37:17;;;;;;;27.13;10.90;;;2.70;97.70;;;;;;5078002;28;20148;-62
2023/03/03 05:39:54;;;;;;;27.92;11.50;;;2.60;97.70;;;;;;5090993;28;20039;-63
2023/03/03 05:42:23;;;;;;;28.65;11.73;;;2.60;98.00;;;;;;5078286;28;20027;-62
2023/03/03 05:44:55;;;;;;;26.27;10.75;;;2.60;97.70;;;;;;5074050;28;20145;-60
2023/03/03 05:47:40;;;;;;;26.33;13.73;;;2.70;97.70;;;;;;5091742;28;20133;-60
2023/03/03 05:50:07;;;;;;;24.55;10.65;;;2.70;97.70;;;;;;5085442;28;20310;-60
2023/03/03 05:52:39;;;;;;;20.40;9.98;;;2.70;97.70;;;;;;5075109;28;20145;-61
2023/03/03 05:55:06;;;;;;;21.95;9.20;;;2.60;97.80;;;;;;5083332;28;20035;-61
2023/03/03 05:57:39;;;;;;;23.15;10.00;;;2.60;97.90;;;;;;5086472;28;20082;-60
2023/03/03 06:03:41;;;;;;;17.30;8.63;;;2.70;98.00;;;;;;5044445;28;20040;-61
2023/03/03 06:06:12;;;;;;;21.83;9.20;;;2.70;97.90;;;;;;5046977;28;20033;-61
2023/03/03 06:08:39;;;;;;;23.42;9.15;;;2.80;97.50;;;;;;5070238;28;20046;-62
2023/03/03 06:11:29;;;;;;;22.02;9.65;;;2.80;97.20;;;;;;5069515;28;20033;-61
2023/03/03 06:14:03;;;;;;;20.90;8.05;;;2.70;97.30;;;;;;5088234;28;20058;-61
2023/03/03 06:16:30;;;;;;;17.65;8.20;;;2.70;97.50;;;;;;5076462;28;20125;-60
2023/03/03 06:18:56;;;;;;;18.95;8.30;;;2.60;97.60;;;;;;5085199;28;20036;-60
2023/03/03 06:21:26;;;;;;;24.27;11.00;;;2.60;97.80;;;;;;5080827;28;20028;-60
2023/03/03 06:23:53;;;;;;;20.77;10.27;;;2.60;97.90;;;;;;5086025;28;20020;-63
2023/03/03 06:26:24;;;;;;;22.92;10.02;;;2.60;97.90;;;;;;5080953;28;20077;-63
2023/03/03 06:29:01;;;;;;;22.90;9.98;;;2.60;98.00;;;;;;5071315;28;20168;-61
2023/03/03 06:31:34;;;;;;;21.25;9.82;;;2.60;98.10;;;;;;5088830;28;20036;-61
2023/03/03 06:34:01;;;;;;;17.98;8.50;;;2.70;97.90;;;;;;5081896;28;20448;-61
2023/03/03 06:36:28;;;;;;;22.02;8.88;;;2.70;97.70;;;;;;5087118;28;20061;-60
2023/03/03 06:39:18;;;;;;;22.13;8.90;;;2.70;97.90;;;;;;5083987;28;20035;-60
2023/03/03 06:41:54;;;;;;;22.42;9.85;;;2.80;98.00;;;;;;5074719;28;20032;-59
2023/03/03 06:44:20;;;;;;;18.30;9.00;;;2.70;98.20;;;;;;5069916;28;20094;-60
2023/03/03 06:46:49;;;;;;;19.23;7.60;;;2.70;98.00;;;;;;5083196;28;20052;-62
2023/03/03 06:49:22;;;;;;;16.65;7.80;;;2.70;98.00;;;;;;5083657;28;20498;-61
2023/03/03 06:52:00;;;;;;;17.00;8.48;;;2.70;98.20;;;;;;5080346;28;20670;-63
2023/03/03 06:54:37;;;;;;;20.85;7.90;;;2.80;98.20;;;;;;5080316;28;20039;-62
2023/03/03 06:57:30;;;;;;;16.08;7.70;;;2.80;97.80;;;;;;5075055;28;20115;-62
2023/03/03 07:00:17;;;;;;;18.85;8.15;;;2.80;97.40;;;;;;5082203;28;20540;-62
2023/03/03 07:03:15;;;;;;;15.73;8.18;;;2.90;97.50;;;;;;5081829;28;20257;-61
2023/03/03 07:05:43;;;;;;;18.23;7.78;;;2.80;97.60;;;;;;5039107;28;20032;-61
2023/03/03 07:08:15;;;;;;;20.15;9.00;;;2.90;97.70;;;;;;5084323;28;20055;-61
2023/03/03 07:10:55;;;;;;;;;;;;;;;;;;;;;
2023/03/03 07:13:38;;;;;;;16.90;7.90;;;2.90;97.20;;;;;;5077596;28;20130;-61
2023/03/03 07:16:24;;;;;;;;;;;;;;;;;;;;;
2023/03/03 07:19:06;;;;;;;21.88;8.68;;;2.90;97.60;;;;;;5064229;28;20044;-61
2023/03/03 07:21:35;;;;;;;17.48;7.45;;;2.90;97.50;;;;;;5082642;28;20039;-60
2023/03/03 07:24:36;;;;;;;18.27;8.07;;;2.90;97.70;;;;;;5080940;28;20104;-59
2023/03/03 07:27:10;;;;;;;16.23;7.60;;;2.80;97.80;;;;;;5085619;28;20102;-61
2023/03/03 07:29:47;;;;;;;19.63;7.57;;;2.70;98.10;;;;;;5085222;28;20033;-60
2023/03/03 07:32:39;;;;;;;16.90;7.93;;;2.70;98.40;;;;;;5089318;28;20384;-61
2023/03/03 07:35:37;;;;;;;14.75;6.57;;;2.80;98.60;;;;;;5084919;28;20051;-63
2023/03/03 07:38:20;;;;;;;15.43;6.82;;;2.80;98.20;;;;;;5082390;28;20032;-60
2023/03/03 07:40:59;;;;;;;18.83;7.63;;;2.80;98.10;;;;;;5082117;28;20043;-63
2023/03/03 07:44:00;;;;;;;18.02;7.45;;;2.90;98.40;;;;;;5077451;28;20709;-60
2023/03/03 07:47:27;;;;;;;18.02;7.50;;;2.90;98.40;;;;;;5072907;28;20047;-61
2023/03/03 07:50:28;;;;;;;18.63;8.35;;;3.10;98.10;;;;;;5083513;28;20039;-62
2023/03/03 07:52:58;;;;;;;17.13;7.30;;;3.10;98.10;;;;;;5078013;28;20040;-62
2023/03/03 07:55:51;;;;;;;15.32;7.10;;;3.10;98.20;;;;;;5083380;28;20035;-64
2023/03/03 07:59:51;;;;;;;21.50;8.98;;;3.20;98.00;;;;;;5009746;28;20033;-62
2023/03/03 08:02:52;;;;;;;17.83;8.25;;;3.20;97.60;;;;;;5000374;28;20455;-62
2023/03/03 08:05:56;;;;;;;19.23;7.55;;;3.20;97.90;;;;;;4993269;28;20038;-62
2023/03/03 08:08:29;;;;;;;19.95;8.27;;;3.20;97.80;;;;;;4979616;28;20125;-62
2023/03/03 08:10:59;;;;;;;22.52;9.70;;;3.20;98.00;;;;;;5077729;28;20147;-61
2023/03/03 08:13:40;;;;;;;19.58;9.13;;;3.20;98.00;;;;;;5067914;28;20134;-62
2023/03/03 08:16:09;;;;;;;20.95;9.43;;;3.20;98.10;;;;;;5078506;28;20502;-60
2023/03/03 08:18:37;;;;;;;21.85;9.00;;;3.30;98.10;;;;;;5074502;28;20043;-60
2023/03/03 08:21:23;;;;;;;22.33;9.10;;;3.30;98.20;;;;;;5078112;28;20046;-61
2023/03/03 08:23:50;;;;;;;18.47;7.90;;;3.30;98.20;;;;;;5073493;28;20039;-62
2023/03/03 08:26:18;;;;;;;17.65;7.30;;;3.50;98.00;;;;;;5074799;28;20286;-62
2023/03/03 08:28:44;;;;;;;21.55;9.02;;;3.50;97.60;;;;;;5083401;28;20028;-62
2023/03/03 08:31:10;;;;;;;23.05;10.02;;;3.50;97.60;;;;;;5082880;28;20140;-60
2023/03/03 08:33:37;;;;;;;15.27;7.13;;;3.50;97.60;;;;;;5073662;28;20028;-64
2023/03/03 08:36:06;;;;;;;13.95;7.22;;;3.60;97.80;;;;;;5071510;28;20092;-61
2023/03/03 08:38:32;;;;;;;19.77;8.43;;;3.60;97.40;;;;;;5080564;28;20046;-61
2023/03/03 08:41:01;;;;;;;20.00;6.13;;;3.70;97.50;;;;;;5073827;28;20086;-62
2023/03/03 08:43:27;;;;;;;16.70;7.00;;;3.80;97.40;;;;;;5074735;28;20444;-62
2023/03/03 08:45:58;;;;;;;18.70;7.78;;;3.80;97.10;;;;;;5075823;28;20509;-62
2023/03/03 08:48:25;;;;;;;24.48;9.23;;;3.80;97.20;;;;;;5079946;28;20135;-62
2023/03/03 08:50:51;;;;;;;19.58;7.68;;;3.90;97.10;;;;;;5079155;28;20468;-62
2023/03/03 08:53:19;;;;;;;17.38;8.30;;;4.00;97.20;;;;;;5069893;28;20108;-59
2023/03/03 08:55:46;;;;;;;18.92;8.07;;;4.10;96.70;;;;;;5067623;28;20028;-61
2023/03/03 08:58:13;;;;;;;18.33;7.28;;;4.10;96.40;;;;;;5070431;28;20037;-61
2023/03/03 09:00:39;;;;;;;16.30;7.88;;;4.20;96.50;;;;;;5082148;28;21020;-61
2023/03/03 09:03:06;;;;;;;24.52;9.07;;;4.20;96.20;;;;;;5075535;28;20028;-61
2023/03/03 09:05:33;;;;;;;21.52;8.18;;;4.20;96.20;;;;;;5076142;28;20042;-61
2023/03/03 09:07:59;;;;;;;22.60;8.88;;;4.30;96.10;;;;;;5073561;28;20093;-62
2023/03/03 09:10:28;;;;;;;22.80;8.30;;;4.40;96.10;;;;;;5074288;28;20273;-61
2023/03/03 09:13:00;;;;;;;22.08;9.02;;;4.40;95.90;;;;;;5076603;28;20024;-62
2023/03/03 09:15:34;;;;;;;23.50;8.40;;;4.40;95.90;;;;;;5080546;28;20036;-63
2023/03/03 09:18:21;;;;;;;20.48;8.00;;;4.50;95.80;;;;;;5079710;28;20123;-64
2023/03/03 09:20:52;;;;;;;18.88;8.20;;;4.50;96.00;;;;;;5072768;28;20122;-66
2023/03/03 09:23:29;;;;;;;19.92;8.32;;;4.50;95.60;;;;;;5075198;28;21087;-62
2023/03/03 09:25:56;;;;;;;21.27;7.82;;;4.40;96.10;;;;;;5067789;28;20036;-62
2023/03/03 09:28:24;;;;;;;25.30;9.63;;;4.40;96.00;;;;;;5070517;28;20735;-63
2023/03/03 09:30:51;;;;;;;22.88;9.30;;;4.50;96.20;;;;;;5073379;28;20819;-63
2023/03/03 09:33:23;;;;;;;23.52;8.45;;;4.60;96.00;;;;;;5075829;28;20028;-63
2023/03/03 09:36:18;;;;;;;29.38;10.80;;;4.60;95.90;;;;;;5066739;28;20078;-63
2023/03/03 09:38:44;;;;;;;26.10;9.60;;;4.60;95.80;;;;;;5074908;28;20027;-63
2023/03/03 09:41:31;;;;;;;25.88;9.70;;;4.60;96.00;;;;;;5072571;28;20097;-63
2023/03/03 09:44:25;;;;;;;25.05;9.23;;;4.70;95.90;;;;;;5068447;28;20709;-63
2023/03/03 09:47:12;;;;;;;27.08;10.20;;;4.70;95.70;;;;;;5066990;28;20029;-63
2023/03/03 09:49:48;;;;;;;28.02;11.73;;;4.70;95.50;;;;;;5072175;28;20564;-63
2023/03/03 09:52:41;;;;;;;26.13;10.13;;;4.50;96.10;;;;;;5065597;28;20131;-63
2023/03/03 09:55:38;;;;;;;20.00;7.45;;;4.50;96.50;;;;;;5071548;28;20035;-63
2023/03/03 09:58:23;;;;;;;;;;;4.50;96.60;;;;;;5067457;28;20025;-63
2023/03/03 10:00:57;;;;;;;27.70;10.88;;;4.60;95.90;;;;;;5073975;28;19919;-64
2023/03/03 10:03:45;;;;;;;24.92;8.70;;;4.50;96.00;;;;;;5074311;28;20198;-62
2023/03/03 10:06:17;;;;;;;21.50;8.55;;;4.60;96.40;;;;;;5070397;28;20028;-63
2023/03/03 10:09:10;;;;;;;24.88;9.77;;;4.70;96.40;;;;;;5072086;28;20032;-63
2023/03/03 10:12:12;;;;;;;23.23;8.30;;;4.80;96.10;;;;;;5073609;28;20078;-63
2023/03/03 10:15:12;;;;;;;18.33;7.35;;;4.90;95.90;;;;;;5078223;28;20109;-63
2023/03/03 10:18:06;;;;;;;21.65;9.35;;;5.00;95.80;;;;;;5071777;28;20063;-63
2023/03/03 10:20:55;;;;;;;22.67;10.18;;;5.20;95.80;;;;;;5068327;28;20039;-63
2023/03/03 10:23:51;;;;;;;24.17;8.90;;;5.40;95.20;;;;;;5074081;28;20035;-63
2023/03/03 10:26:45;;;;;;;21.15;9.32;;;5.60;94.70;;;;;;5076185;28;20118;-63
2023/03/03 10:29:20;;;;;;;24.30;8.75;;;5.70;94.30;;;;;;5071338;28;20024;-63
2023/03/03 10:32:08;;;;;;;21.92;9.32;;;5.70;94.20;;;;;;5071017;28;20032;-63
2023/03/03 10:34:49;;;;;;;27.20;13.00;;;5.80;94.00;;;;;;5075934;28;20042;-63
2023/03/03 10:37:48;;;;;;;41.78;20.58;;;5.80;93.80;;;;;;5078075;28;20476;-62
2023/03/03 10:40:27;;;;;;;38.83;17.98;;;5.80;93.80;;;;;;5078273;28;20761;-63
2023/03/03 10:43:19;;;;;;;57.80;32.33;;;5.50;93.90;;;;;;5071399;28;20059;-63
2023/03/03 10:46:23;;;;;;;26.88;10.55;;;5.50;94.80;;;;;;5075960;28;20370;-63
2023/03/03 10:49:22;;;;;;;29.48;13.48;;;5.40;94.60;;;;;;5068916;28;20093;-63
2023/03/03 10:51:59;;;;;;;37.20;19.25;;;5.40;94.70;;;;;;5060762;28;20128;-63
2023/03/03 10:54:46;;;;;;;28.35;11.07;;;5.20;95.40;;;;;;5075274;28;20143;-65
2023/03/03 10:57:45;;;;;;;25.85;11.45;;;5.30;95.80;;;;;;5075112;28;20081;-63
2023/03/03 11:00:22;;;;;;;29.63;11.63;;;5.50;94.90;;;;;;5057070;28;20799;-63
2023/03/03 11:02:57;;;;;;;28.10;11.25;;;5.50;94.90;;;;;;5067686;28;20131;-64
2023/03/03 11:05:33;;;;;;;27.35;11.48;;;5.50;94.90;;;;;;5079007;28;20127;-63
2023/03/03 11:08:32;;;;;;;28.00;10.10;;;5.60;94.60;;;;;;5064150;28;20098;-63
2023/03/03 11:11:20;;;;;;;27.13;11.57;;;5.70;94.20;;;;;;5075092;28;20174;-63
2023/03/03 11:14:02;;;;;;;23.38;10.18;;;5.80;94.40;;;;;;5071191;28;20031;-63
2023/03/03 11:16:43;;;;;;;30.30;11.30;;;5.80;93.90;;;;;;5069899;28;20064;-61
2023/03/03 11:19:48;;;;;;;31.45;11.73;;;5.90;93.90;;;;;;5072640;28;20105;-63
2023/03/03 11:22:46;;;;;;;30.42;12.02;;;6.00;93.90;;;;;;5023408;28;20042;-63
2023/03/03 11:25:51;;;;;;;;;;;6.10;93.90;;;;;;5034500;28;20040;-62
2023/03/03 11:28:25;;;;;;;33.15;10.98;;;6.20;93.70;;;;;;4992452;28;19913;-65
2023/03/03 11:31:03;;;;;;;27.85;12.40;;;6.30;93.60;;;;;;4983275;28;20037;-63
2023/03/03 11:33:28;;;;;;;21.73;10.05;;;6.40;93.30;;;;;;5041238;28;20036;-63
2023/03/03 11:36:29;;;;;;;29.02;12.15;;;6.50;92.70;;;;;;5073633;28;20036;-63
2023/03/03 11:39:01;;;;;;;31.77;11.35;;;6.50;92.50;;;;;;5061503;28;20553;-64
2023/03/03 11:41:41;;;;;;;20.45;9.75;;;6.40;92.70;;;;;;5083448;28;20049;-64
2023/03/03 11:44:12;;;;;;;27.23;11.02;;;6.40;92.80;;;;;;5084526;28;20031;-65
2023/03/03 11:46:52;;;;;;;28.98;10.32;;;6.40;92.70;;;;;;5083009;28;20063;-63
2023/03/03 11:49:38;;;;;;;24.50;9.75;;;6.30;92.70;;;;;;5079444;28;20215;-63
2023/03/03 11:52:31;;;;;;;25.95;11.07;;;6.10;93.20;;;;;;5076428;28;20027;-63
2023/03/03 11:55:09;;;;;;;23.45;10.32;;;6.10;93.80;;;;;;5077990;28;20149;-63
2023/03/03 11:57:39;;;;;;;24.88;10.20;;;6.10;93.80;;;;;;5071469;28;20036;-63
2023/03/03 12:00:20;;;;;;;21.60;9.82;;;6.20;93.80;;;;;;5072407;28;20024;-64
2023/03/03 12:03:18;;;;;;;20.50;9.65;;;6.30;93.30;;;;;;5073892;28;20123;-64
2023/03/03 12:06:04;;;;;;;21.95;9.20;;;6.40;93.20;;;;;;5079601;28;20081;-67
2023/03/03 12:08:39;;;;;;;22.33;9.57;;;6.50;93.00;;;;;;5075648;28;20960;-63
2023/03/03 12:11:14;;;;;;;20.65;9.25;;;6.60;92.60;;;;;;5073533;28;20028;-63
2023/03/03 12:13:55;;;;;;;24.65;10.25;;;6.70;92.30;;;;;;5075995;28;20028;-61
2023/03/03 12:16:53;;;;;;;26.60;11.13;;;6.70;92.10;;;;;;5078892;28;20142;-63
2023/03/03 12:19:21;;;;;;;30.10;11.02;;;6.60;92.50;;;;;;5075307;28;20803;-63
2023/03/03 12:22:11;;;;;;;26.77;11.85;;;6.60;93.00;;;;;;5080466;28;20020;-63
2023/03/03 12:24:59;;;;;;;23.52;9.48;;;6.60;93.10;;;;;;5078108;28;20135;-62
2023/03/03 12:27:29;;;;;;;20.95;9.18;;;6.50;92.80;;;;;;5073910;28;20024;-63
2023/03/03 12:30:26;;;;;;;20.80;8.95;;;6.40;92.60;;;;;;5083465;28;20023;-63
2023/03/03 12:33:06;;;;;;;21.30;9.60;;;6.30;93.00;;;;;;5072046;28;20082;-64
2023/03/03 12:35:45;;;;;;;20.35;9.00;;;6.40;93.10;;;;;;5082443;28;20032;-64
2023/03/03 12:38:25;;;;;;;18.15;8.30;;;6.60;92.70;;;;;;5082145;28;20028;-63
2023/03/03 12:41:22;;;;;;;21.23;9.23;;;6.60;92.20;;;;;;5088487;28;20051;-64
2023/03/03 12:43:51;;;;;;;17.60;8.88;;;6.60;92.10;;;;;;5080279;28;20036;-64
2023/03/03 12:46:42;;;;;;;17.73;8.95;;;6.60;92.30;;;;;;5084923;28;20056;-61
2023/03/03 12:49:08;;;;;;;20.30;8.40;;;6.70;92.40;;;;;;5078136;28;20055;-63
2023/03/03 12:51:54;;;;;;;20.63;9.18;;;6.80;92.40;;;;;;5079379;28;20063;-63
2023/03/03 12:54:43;;;;;;;21.37;9.13;;;6.80;92.00;;;;;;5078384;28;20032;-64
2023/03/03 12:57:15;;;;;;;19.00;9.15;;;6.90;91.80;;;;;;5079075;28;20059;-63
2023/03/03 12:59:53;;;;;;;17.13;8.65;;;7.00;91.70;;;;;;5080891;28;20031;-64
2023/03/03 13:02:44;;;;;;;20.33;8.50;;;7.10;91.50;;;;;;5084020;28;20059;-63
2023/03/03 13:05:34;;;;;;;16.50;7.78;;;7.10;91.40;;;;;;5078906;28;20040;-64
2023/03/03 13:08:32;;;;;;;20.23;8.38;;;7.20;91.40;;;;;;5085625;28;20085;-64
2023/03/03 13:11:10;;;;;;;20.17;9.38;;;7.10;91.20;;;;;;5075195;28;20105;-64
2023/03/03 13:14:10;;;;;;;16.92;8.35;;;7.10;91.80;;;;;;5081280;28;20036;-64
2023/03/03 13:17:18;;;;;;;17.65;8.25;;;7.10;91.70;;;;;;5082349;28;20024;-63
2023/03/03 13:20:02;;;;;;;20.45;9.82;;;7.10;91.70;;;;;;5057739;28;20054;-63
2023/03/03 13:22:31;;;;;;;19.42;9.73;;;7.10;91.60;;;;;;5074860;28;20039;-63
2023/03/03 13:25:03;;;;;;;21.30;9.77;;;7.20;91.50;;;;;;5080172;28;20036;-64
2023/03/03 13:27:39;;;;;;;22.83;9.80;;;7.30;91.90;;;;;;5077958;28;20071;-64
2023/03/03 13:30:22;;;;;;;17.92;9.55;;;7.30;91.50;;;;;;5078882;28;20039;-64
2023/03/03 13:32:55;;;;;;;18.88;9.48;;;7.30;91.30;;;;;;5081256;28;20784;-64
2023/03/03 13:35:44;;;;;;;22.23;10.10;;;7.40;91.30;;;;;;5076377;28;20056;-64
2023/03/03 13:38:17;;;;;;;21.52;10.35;;;7.30;91.00;;;;;;5070128;28;20043;-63
2023/03/03 13:40:52;;;;;;;20.77;10.25;;;7.10;91.80;;;;;;5083868;28;20032;-64
2023/03/03 13:43:43;;;;;;;24.33;9.85;;;7.10;91.70;;;;;;5082504;28;20063;-64
2023/03/03 13:46:35;;;;;;;21.05;9.25;;;7.20;91.90;;;;;;5073478;28;20043;-65
2023/03/03 13:49:27;;;;;;;19.48;9.25;;;7.20;91.60;;;;;;5080693;28;20044;-64
2023/03/03 13:52:08;;;;;;;18.77;9.38;;;7.30;91.10;;;;;;5073865;28;20059;-72
2023/03/03 13:55:06;;;;;;;19.38;9.18;;;7.30;91.10;;;;;;5087324;28;20732;-64
2023/03/03 13:58:01;;;;;;;22.23;9.80;;;7.20;91.00;;;;;;5082102;28;20210;-64